OAS9531 SKCG-SKBO
Flight info
| Callsign | OAS9531 |
|---|---|
| Flight time | 0h 58m |
| Altitude | 33000 |
| Route | ILMIK2A AKPEK UQ121 ISVAT ISVAT4E |
| Aircraft | A21N/M-SDE2E3FGHIRWXY/LB1 |
Departure
| Time | 2026-04-26 22:20 |
|---|---|
| Airport | Rafael Nuñez International Airport (SKCG) |
Arrival
| Time | 2026-04-26 23:18 |
|---|---|
| Airport | El Dorado International Airport (SKBO) |
| Time | Latitude | Longitude | Altitude | Speed | Heading |
|---|---|---|---|---|---|
| 2026-04-26 22:06 | 10.44648 | -75.51543 | 15 ft | 0 kts | 272° |
| 2026-04-26 22:12 | 10.44648 | -75.51530 | 15 ft | 2 kts | 272° |
| 2026-04-26 22:13 | 10.44647 | -75.51513 | 16 ft | 2 kts | 272° |
| 2026-04-26 22:13 | 10.44646 | -75.51496 | 18 ft | 2 kts | 273° |
| 2026-04-26 22:13 | 10.44645 | -75.51479 | 18 ft | 2 kts | 273° |
| 2026-04-26 22:13 | 10.44645 | -75.51463 | 15 ft | 2 kts | 240° |
| 2026-04-26 22:14 | 10.44659 | -75.51456 | 17 ft | 2 kts | 187° |
| 2026-04-26 22:14 | 10.44666 | -75.51455 | 16 ft | 0 kts | 187° |
| 2026-04-26 22:15 | 10.44648 | -75.51457 | 15 ft | 8 kts | 186° |
| 2026-04-26 22:15 | 10.44586 | -75.51452 | 15 ft | 8 kts | 157° |
| 2026-04-26 22:16 | 10.44555 | -75.51381 | 15 ft | 14 kts | 100° |
| 2026-04-26 22:16 | 10.44532 | -75.51287 | 15 ft | 14 kts | 136° |
| 2026-04-26 22:16 | 10.44434 | -75.51282 | 15 ft | 18 kts | 184° |
| 2026-04-26 22:16 | 10.44280 | -75.51289 | 13 ft | 23 kts | 182° |
| 2026-04-26 22:17 | 10.44100 | -75.51298 | 11 ft | 27 kts | 184° |
| 2026-04-26 22:17 | 10.43913 | -75.51304 | 13 ft | 27 kts | 184° |
| 2026-04-26 22:17 | 10.43714 | -75.51311 | 12 ft | 32 kts | 183° |
| 2026-04-26 22:17 | 10.43525 | -75.51320 | 15 ft | 27 kts | 181° |
| 2026-04-26 22:18 | 10.43345 | -75.51328 | 16 ft | 25 kts | 182° |
| 2026-04-26 22:18 | 10.43211 | -75.51297 | 15 ft | 17 kts | 139° |
| 2026-04-26 22:18 | 10.43117 | -75.51232 | 14 ft | 16 kts | 176° |
| 2026-04-26 22:18 | 10.43068 | -75.51266 | 15 ft | 12 kts | 271° |
| 2026-04-26 22:19 | 10.43119 | -75.51333 | 15 ft | 13 kts | 353° |
| 2026-04-26 22:19 | 10.43174 | -75.51334 | 15 ft | 0 kts | 5° |
| 2026-04-26 22:19 | 10.43270 | -75.51328 | 16 ft | 41 kts | 2° |
| 2026-04-26 22:19 | 10.43763 | -75.51310 | 12 ft | 101 kts | 2° |
| 2026-04-26 22:20 | 10.44683 | -75.51268 | 24 ft | 158 kts | 2° |
| 2026-04-26 22:20 | 10.45831 | -75.51197 | 408 ft | 170 kts | 2° |
| 2026-04-26 22:20 | 10.47023 | -75.51123 | 1001 ft | 173 kts | 2° |
| 2026-04-26 22:20 | 10.48216 | -75.51040 | 1663 ft | 169 kts | 3° |
| 2026-04-26 22:21 | 10.49435 | -75.50954 | 2103 ft | 186 kts | 9° |
| 2026-04-26 22:21 | 10.50657 | -75.50364 | 2290 ft | 209 kts | 43° |
| 2026-04-26 22:21 | 10.51280 | -75.48994 | 2638 ft | 227 kts | 86° |
| 2026-04-26 22:21 | 10.50837 | -75.47452 | 3141 ft | 236 kts | 127° |
| 2026-04-26 22:22 | 10.49520 | -75.46502 | 3741 ft | 238 kts | 159° |
| 2026-04-26 22:22 | 10.47881 | -75.46030 | 4171 ft | 252 kts | 167° |
| 2026-04-26 22:22 | 10.46155 | -75.45633 | 4813 ft | 255 kts | 167° |
| 2026-04-26 22:22 | 10.44422 | -75.45219 | 5514 ft | 256 kts | 166° |
| 2026-04-26 22:23 | 10.42683 | -75.44781 | 6189 ft | 259 kts | 166° |
| 2026-04-26 22:23 | 10.40922 | -75.44355 | 6811 ft | 262 kts | 172° |
| 2026-04-26 22:23 | 10.39106 | -75.44351 | 7299 ft | 271 kts | 186° |
| 2026-04-26 22:23 | 10.37197 | -75.44618 | 7723 ft | 282 kts | 189° |
| 2026-04-26 22:24 | 10.35237 | -75.44944 | 8317 ft | 287 kts | 189° |
| 2026-04-26 22:24 | 10.33253 | -75.45274 | 8977 ft | 290 kts | 189° |
| 2026-04-26 22:24 | 10.31249 | -75.45599 | 9630 ft | 293 kts | 189° |
| 2026-04-26 22:24 | 10.29218 | -75.45923 | 10204 ft | 298 kts | 189° |
| 2026-04-26 22:25 | 10.27113 | -75.46256 | 10468 ft | 315 kts | 189° |
| 2026-04-26 22:25 | 10.24900 | -75.46603 | 10693 ft | 331 kts | 188° |
| 2026-04-26 22:25 | 10.22566 | -75.46968 | 10898 ft | 346 kts | 188° |
| 2026-04-26 22:25 | 10.20155 | -75.47344 | 11231 ft | 355 kts | 188° |
| 2026-04-26 22:26 | 10.17696 | -75.47728 | 11708 ft | 359 kts | 188° |
| 2026-04-26 22:26 | 10.15227 | -75.48113 | 12237 ft | 361 kts | 188° |
| 2026-04-26 22:26 | 10.12742 | -75.48500 | 12784 ft | 362 kts | 188° |
| 2026-04-26 22:26 | 10.10243 | -75.48889 | 13297 ft | 365 kts | 188° |
| 2026-04-26 22:27 | 10.07720 | -75.49283 | 13789 ft | 368 kts | 188° |
| 2026-04-26 22:27 | 10.05188 | -75.49677 | 14264 ft | 369 kts | 188° |
| 2026-04-26 22:27 | 10.02642 | -75.50073 | 14757 ft | 371 kts | 188° |
| 2026-04-26 22:27 | 10.00076 | -75.50473 | 15169 ft | 375 kts | 189° |
| 2026-04-26 22:28 | 9.97489 | -75.50876 | 15634 ft | 377 kts | 189° |
| 2026-04-26 22:28 | 9.94892 | -75.51280 | 16110 ft | 379 kts | 189° |
| 2026-04-26 22:28 | 9.92281 | -75.51686 | 16562 ft | 381 kts | 189° |
| 2026-04-26 22:28 | 9.89643 | -75.52097 | 16919 ft | 386 kts | 189° |
| 2026-04-26 22:29 | 9.86986 | -75.52510 | 17359 ft | 387 kts | 189° |
| 2026-04-26 22:29 | 9.84321 | -75.52925 | 17767 ft | 389 kts | 189° |
| 2026-04-26 22:29 | 9.81634 | -75.53343 | 18095 ft | 392 kts | 189° |
| 2026-04-26 22:29 | 9.78926 | -75.53764 | 18390 ft | 394 kts | 189° |
| 2026-04-26 22:30 | 9.76211 | -75.54186 | 18699 ft | 395 kts | 189° |
| 2026-04-26 22:30 | 9.73485 | -75.54610 | 18969 ft | 397 kts | 189° |
| 2026-04-26 22:30 | 9.70744 | -75.55036 | 19206 ft | 400 kts | 189° |
| 2026-04-26 22:30 | 9.67992 | -75.55463 | 19471 ft | 401 kts | 189° |
| 2026-04-26 22:31 | 9.65234 | -75.55892 | 19716 ft | 402 kts | 189° |
| 2026-04-26 22:31 | 9.62462 | -75.56323 | 19906 ft | 404 kts | 189° |
| 2026-04-26 22:31 | 9.59675 | -75.56755 | 20117 ft | 406 kts | 189° |
| 2026-04-26 22:31 | 9.56885 | -75.57189 | 20352 ft | 406 kts | 189° |
| 2026-04-26 22:32 | 9.54085 | -75.57623 | 20556 ft | 408 kts | 189° |
| 2026-04-26 22:32 | 9.51311 | -75.58054 | 20780 ft | 409 kts | 188° |
| 2026-04-26 22:32 | 9.48496 | -75.58491 | 21056 ft | 409 kts | 188° |
| 2026-04-26 22:32 | 9.45675 | -75.58929 | 21260 ft | 411 kts | 188° |
| 2026-04-26 22:33 | 9.42836 | -75.59369 | 21446 ft | 414 kts | 188° |
| 2026-04-26 22:33 | 9.37136 | -75.60254 | 21952 ft | 416 kts | 188° |
| 2026-04-26 22:33 | 9.34271 | -75.60698 | 22128 ft | 419 kts | 188° |
| 2026-04-26 22:34 | 9.31387 | -75.61145 | 22396 ft | 419 kts | 188° |
| 2026-04-26 22:34 | 9.28505 | -75.61592 | 22644 ft | 420 kts | 188° |
| 2026-04-26 22:34 | 9.25608 | -75.62041 | 22835 ft | 423 kts | 188° |
| 2026-04-26 22:34 | 9.22700 | -75.62492 | 23077 ft | 424 kts | 188° |
| 2026-04-26 22:35 | 9.19782 | -75.62944 | 23335 ft | 424 kts | 188° |
| 2026-04-26 22:35 | 9.16858 | -75.63397 | 23498 ft | 427 kts | 189° |
| 2026-04-26 22:35 | 9.13907 | -75.63854 | 23595 ft | 431 kts | 189° |
| 2026-04-26 22:35 | 9.10939 | -75.64313 | 23787 ft | 431 kts | 189° |
| 2026-04-26 22:36 | 9.07967 | -75.64774 | 23959 ft | 433 kts | 189° |
| 2026-04-26 22:36 | 9.04991 | -75.65235 | 24150 ft | 434 kts | 189° |
| 2026-04-26 22:36 | 9.02011 | -75.65696 | 24393 ft | 434 kts | 188° |
| 2026-04-26 22:36 | 8.99015 | -75.66160 | 24592 ft | 435 kts | 188° |
| 2026-04-26 22:37 | 8.96016 | -75.66624 | 24816 ft | 437 kts | 188° |
| 2026-04-26 22:37 | 8.93013 | -75.67089 | 25091 ft | 437 kts | 188° |
| 2026-04-26 22:37 | 8.89994 | -75.67556 | 25332 ft | 439 kts | 188° |
| 2026-04-26 22:37 | 8.86976 | -75.68023 | 25580 ft | 440 kts | 188° |
| 2026-04-26 22:38 | 8.83950 | -75.68491 | 25829 ft | 441 kts | 188° |
| 2026-04-26 22:38 | 8.80901 | -75.68962 | 26090 ft | 442 kts | 188° |
| 2026-04-26 22:38 | 8.77864 | -75.69432 | 26421 ft | 441 kts | 188° |
| 2026-04-26 22:38 | 8.74830 | -75.69901 | 26709 ft | 442 kts | 188° |
| 2026-04-26 22:39 | 8.71784 | -75.70371 | 26955 ft | 443 kts | 188° |
| 2026-04-26 22:39 | 8.68733 | -75.70843 | 27204 ft | 444 kts | 188° |
| 2026-04-26 22:39 | 8.65678 | -75.71315 | 27438 ft | 445 kts | 188° |
| 2026-04-26 22:39 | 8.62616 | -75.71788 | 27675 ft | 446 kts | 188° |
| 2026-04-26 22:40 | 8.59541 | -75.72263 | 27907 ft | 447 kts | 188° |
| 2026-04-26 22:40 | 8.56506 | -75.72731 | 28131 ft | 448 kts | 188° |
| 2026-04-26 22:40 | 8.53424 | -75.73207 | 28355 ft | 449 kts | 188° |
| 2026-04-26 22:40 | 8.50329 | -75.73685 | 28596 ft | 449 kts | 188° |
| 2026-04-26 22:41 | 8.47243 | -75.74161 | 28923 ft | 448 kts | 187° |
| 2026-04-26 22:41 | 8.44171 | -75.74636 | 29255 ft | 446 kts | 187° |
| 2026-04-26 22:41 | 8.41108 | -75.75108 | 29524 ft | 446 kts | 187° |
| 2026-04-26 22:41 | 8.38042 | -75.75581 | 29827 ft | 445 kts | 187° |
| 2026-04-26 22:42 | 8.34989 | -75.76053 | 30111 ft | 443 kts | 187° |
| 2026-04-26 22:42 | 8.31939 | -75.76523 | 30335 ft | 443 kts | 187° |
| 2026-04-26 22:42 | 8.28896 | -75.76992 | 30546 ft | 443 kts | 187° |
| 2026-04-26 22:42 | 8.25854 | -75.77461 | 30774 ft | 442 kts | 187° |
| 2026-04-26 22:43 | 8.22811 | -75.77930 | 31000 ft | 442 kts | 187° |
| 2026-04-26 22:43 | 8.19771 | -75.78399 | 31226 ft | 441 kts | 187° |
| 2026-04-26 22:43 | 8.16728 | -75.78868 | 31282 ft | 446 kts | 188° |
| 2026-04-26 22:44 | 8.10546 | -75.79820 | 31551 ft | 449 kts | 188° |
| 2026-04-26 22:44 | 8.07463 | -75.80295 | 31859 ft | 447 kts | 188° |
| 2026-04-26 22:44 | 8.04404 | -75.80766 | 32144 ft | 444 kts | 188° |
| 2026-04-26 22:44 | 8.01343 | -75.81209 | 32385 ft | 443 kts | 185° |
| 2026-04-26 22:45 | 7.98268 | -75.81324 | 32593 ft | 442 kts | 176° |
| 2026-04-26 22:45 | 7.95209 | -75.81002 | 32790 ft | 442 kts | 172° |
| 2026-04-26 22:45 | 7.92172 | -75.80493 | 32870 ft | 445 kts | 169° |
| 2026-04-26 22:46 | 7.86048 | -75.79229 | 32876 ft | 453 kts | 168° |
| 2026-04-26 22:46 | 7.79820 | -75.77905 | 32887 ft | 462 kts | 168° |
| 2026-04-26 22:47 | 7.73491 | -75.76610 | 32890 ft | 465 kts | 169° |
| 2026-04-26 22:47 | 7.67151 | -75.75344 | 32889 ft | 465 kts | 169° |
| 2026-04-26 22:48 | 7.60790 | -75.74082 | 32911 ft | 465 kts | 169° |
| 2026-04-26 22:48 | 7.54438 | -75.72821 | 32922 ft | 465 kts | 169° |
| 2026-04-26 22:49 | 7.48082 | -75.71559 | 32944 ft | 466 kts | 169° |
| 2026-04-26 22:49 | 7.41727 | -75.70296 | 32945 ft | 465 kts | 169° |
| 2026-04-26 22:50 | 7.35380 | -75.69034 | 32968 ft | 465 kts | 169° |
| 2026-04-26 22:50 | 7.28986 | -75.67765 | 32970 ft | 471 kts | 169° |
| 2026-04-26 22:51 | 7.22549 | -75.66486 | 32970 ft | 471 kts | 169° |
| 2026-04-26 22:51 | 7.16113 | -75.65208 | 32973 ft | 472 kts | 169° |
| 2026-04-26 22:52 | 7.09673 | -75.63930 | 32965 ft | 472 kts | 169° |
| 2026-04-26 22:52 | 7.03234 | -75.62653 | 32991 ft | 472 kts | 169° |
| 2026-04-26 22:53 | 6.96845 | -75.61386 | 32993 ft | 472 kts | 169° |
| 2026-04-26 22:53 | 6.90405 | -75.60110 | 33007 ft | 472 kts | 169° |
| 2026-04-26 22:54 | 6.83961 | -75.58832 | 33013 ft | 472 kts | 169° |
| 2026-04-26 22:54 | 6.77515 | -75.57554 | 33008 ft | 472 kts | 169° |
| 2026-04-26 22:55 | 6.71071 | -75.56278 | 33019 ft | 472 kts | 169° |
| 2026-04-26 22:55 | 6.64635 | -75.55003 | 33016 ft | 472 kts | 169° |
| 2026-04-26 22:56 | 6.58185 | -75.53725 | 33018 ft | 473 kts | 169° |
| 2026-04-26 22:56 | 6.51726 | -75.52447 | 33021 ft | 473 kts | 169° |
| 2026-04-26 22:57 | 6.45268 | -75.51169 | 33013 ft | 473 kts | 169° |
| 2026-04-26 22:57 | 6.38811 | -75.49891 | 33015 ft | 473 kts | 169° |
| 2026-04-26 22:58 | 6.32349 | -75.48613 | 33109 ft | 473 kts | 169° |
| 2026-04-26 22:58 | 6.25893 | -75.47336 | 33247 ft | 473 kts | 169° |
| 2026-04-26 22:59 | 6.19423 | -75.46057 | 33265 ft | 474 kts | 169° |
| 2026-04-26 22:59 | 6.12944 | -75.44777 | 33263 ft | 474 kts | 169° |
| 2026-04-26 23:00 | 6.06463 | -75.43497 | 33253 ft | 474 kts | 169° |
| 2026-04-26 23:00 | 6.00039 | -75.42043 | 33195 ft | 473 kts | 158° |
| 2026-04-26 23:01 | 5.95289 | -75.39346 | 33160 ft | 472 kts | 146° |
| 2026-04-26 23:01 | 5.90193 | -75.35165 | 33101 ft | 474 kts | 139° |
| 2026-04-26 23:02 | 5.85412 | -75.30726 | 33040 ft | 457 kts | 137° |
| 2026-04-26 23:02 | 5.80842 | -75.26412 | 33015 ft | 449 kts | 137° |
| 2026-04-26 23:02 | 5.78574 | -75.24264 | 32839 ft | 445 kts | 137° |
| 2026-04-26 23:03 | 5.76333 | -75.22139 | 32597 ft | 441 kts | 137° |
| 2026-04-26 23:03 | 5.74113 | -75.20033 | 32338 ft | 438 kts | 137° |
| 2026-04-26 23:03 | 5.71900 | -75.17934 | 32091 ft | 437 kts | 137° |
| 2026-04-26 23:03 | 5.69698 | -75.15845 | 31880 ft | 435 kts | 137° |
| 2026-04-26 23:04 | 5.67503 | -75.13763 | 31629 ft | 433 kts | 137° |
| 2026-04-26 23:04 | 5.65333 | -75.11704 | 31288 ft | 425 kts | 137° |
| 2026-04-26 23:04 | 5.63194 | -75.09674 | 30819 ft | 422 kts | 137° |
| 2026-04-26 23:04 | 5.61067 | -75.07657 | 30332 ft | 419 kts | 137° |
| 2026-04-26 23:05 | 5.58955 | -75.05654 | 29802 ft | 416 kts | 137° |
| 2026-04-26 23:05 | 5.56859 | -75.03667 | 29277 ft | 412 kts | 137° |
| 2026-04-26 23:05 | 5.54789 | -75.01704 | 28813 ft | 408 kts | 137° |
| 2026-04-26 23:05 | 5.52738 | -74.99759 | 28295 ft | 404 kts | 137° |
| 2026-04-26 23:06 | 5.50702 | -74.97829 | 27808 ft | 400 kts | 137° |
| 2026-04-26 23:06 | 5.48687 | -74.95920 | 27319 ft | 397 kts | 137° |
| 2026-04-26 23:06 | 5.46688 | -74.94024 | 26838 ft | 394 kts | 137° |
| 2026-04-26 23:06 | 5.44697 | -74.92137 | 26355 ft | 392 kts | 137° |
| 2026-04-26 23:07 | 5.42721 | -74.90264 | 25866 ft | 390 kts | 136° |
| 2026-04-26 23:07 | 5.40757 | -74.88404 | 25384 ft | 388 kts | 136° |
| 2026-04-26 23:07 | 5.38796 | -74.86546 | 24895 ft | 386 kts | 136° |
| 2026-04-26 23:07 | 5.36848 | -74.84700 | 24422 ft | 385 kts | 136° |
| 2026-04-26 23:08 | 5.34904 | -74.82858 | 23943 ft | 384 kts | 136° |
| 2026-04-26 23:08 | 5.32969 | -74.81026 | 23470 ft | 383 kts | 136° |
| 2026-04-26 23:08 | 5.31035 | -74.79194 | 22927 ft | 381 kts | 136° |
| 2026-04-26 23:08 | 5.29121 | -74.77381 | 22465 ft | 378 kts | 136° |
| 2026-04-26 23:09 | 5.27214 | -74.75575 | 21981 ft | 375 kts | 136° |
| 2026-04-26 23:09 | 5.25355 | -74.73815 | 21524 ft | 372 kts | 136° |
| 2026-04-26 23:09 | 5.23455 | -74.72016 | 21059 ft | 369 kts | 136° |
| 2026-04-26 23:09 | 5.21615 | -74.70274 | 20610 ft | 367 kts | 137° |
| 2026-04-26 23:10 | 5.19762 | -74.68519 | 20158 ft | 366 kts | 137° |
| 2026-04-26 23:10 | 5.17912 | -74.66768 | 19710 ft | 364 kts | 137° |
| 2026-04-26 23:10 | 5.16074 | -74.65029 | 19267 ft | 363 kts | 137° |
| 2026-04-26 23:10 | 5.14239 | -74.63292 | 18849 ft | 362 kts | 137° |
| 2026-04-26 23:11 | 5.12405 | -74.61557 | 18366 ft | 362 kts | 137° |
| 2026-04-26 23:11 | 5.10559 | -74.59810 | 17600 ft | 368 kts | 137° |
| 2026-04-26 23:11 | 5.08707 | -74.58057 | 17083 ft | 365 kts | 137° |
| 2026-04-26 23:11 | 5.06866 | -74.56316 | 16649 ft | 361 kts | 137° |
| 2026-04-26 23:12 | 5.05048 | -74.54596 | 16185 ft | 357 kts | 137° |
| 2026-04-26 23:12 | 5.03255 | -74.52900 | 15720 ft | 354 kts | 137° |
| 2026-04-26 23:12 | 5.01470 | -74.51212 | 15260 ft | 350 kts | 137° |
| 2026-04-26 23:12 | 4.99710 | -74.49548 | 14855 ft | 347 kts | 137° |
| 2026-04-26 23:13 | 4.97966 | -74.47898 | 14429 ft | 343 kts | 137° |
| 2026-04-26 23:13 | 4.96234 | -74.46261 | 14011 ft | 340 kts | 137° |
| 2026-04-26 23:13 | 4.94521 | -74.44641 | 13524 ft | 336 kts | 137° |
| 2026-04-26 23:13 | 4.92836 | -74.43048 | 13115 ft | 331 kts | 137° |
| 2026-04-26 23:14 | 4.91236 | -74.41406 | 12857 ft | 327 kts | 129° |
| 2026-04-26 23:14 | 4.89847 | -74.39595 | 12831 ft | 328 kts | 126° |
| 2026-04-26 23:14 | 4.88533 | -74.37770 | 12741 ft | 318 kts | 126° |
| 2026-04-26 23:14 | 4.87255 | -74.35976 | 12354 ft | 314 kts | 126° |
| 2026-04-26 23:15 | 4.86002 | -74.34217 | 12117 ft | 305 kts | 126° |
| 2026-04-26 23:15 | 4.84751 | -74.32544 | 11925 ft | 295 kts | 133° |
| 2026-04-26 23:15 | 4.83309 | -74.31145 | 11764 ft | 284 kts | 139° |
| 2026-04-26 23:15 | 4.81830 | -74.29860 | 11460 ft | 279 kts | 140° |
| 2026-04-26 23:16 | 4.80357 | -74.28604 | 11161 ft | 277 kts | 140° |
| 2026-04-26 23:16 | 4.78950 | -74.27293 | 10898 ft | 277 kts | 131° |
| 2026-04-26 23:16 | 4.77765 | -74.25778 | 10583 ft | 276 kts | 126° |
| 2026-04-26 23:16 | 4.76625 | -74.24233 | 10253 ft | 275 kts | 127° |
| 2026-04-26 23:17 | 4.75475 | -74.22724 | 9926 ft | 267 kts | 127° |
| 2026-04-26 23:17 | 4.74374 | -74.21277 | 9570 ft | 257 kts | 127° |
| 2026-04-26 23:17 | 4.73302 | -74.19853 | 9202 ft | 250 kts | 126° |
| 2026-04-26 23:17 | 4.72304 | -74.18529 | 8849 ft | 226 kts | 126° |
| 2026-04-26 23:18 | 4.71408 | -74.17341 | 8538 ft | 206 kts | 125° |
| 2026-04-26 23:18 | 4.70551 | -74.16257 | 8385 ft | 188 kts | 128° |
| 2026-04-26 23:18 | 4.69912 | -74.15404 | 8375 ft | 111 kts | 128° |
| 2026-04-26 23:18 | 4.69584 | -74.14983 | 8372 ft | 48 kts | 128° |
| 2026-04-26 23:19 | 4.69390 | -74.14733 | 8371 ft | 44 kts | 127° |
| 2026-04-26 23:19 | 4.69402 | -74.14594 | 8370 ft | 9 kts | 41° |
| 2026-04-26 23:19 | 4.69451 | -74.14558 | 8375 ft | 8 kts | 36° |
| 2026-04-26 23:19 | 4.69468 | -74.14545 | 8371 ft | 0 kts | 34° |
| 2026-04-26 23:20 | 4.69503 | -74.14535 | 8375 ft | 11 kts | 353° |
| 2026-04-26 23:20 | 4.69566 | -74.14593 | 8376 ft | 12 kts | 307° |
| 2026-04-26 23:21 | 4.69618 | -74.14660 | 8373 ft | 18 kts | 307° |
| 2026-04-26 23:21 | 4.69709 | -74.14782 | 8376 ft | 21 kts | 307° |
| 2026-04-26 23:21 | 4.69788 | -74.14795 | 8375 ft | 7 kts | 38° |
| 2026-04-26 23:21 | 4.69830 | -74.14761 | 8376 ft | 12 kts | 38° |
| 2026-04-26 23:22 | 4.69907 | -74.14703 | 8374 ft | 19 kts | 38° |
| 2026-04-26 23:22 | 4.70008 | -74.14628 | 8376 ft | 17 kts | 35° |
| 2026-04-26 23:22 | 4.70106 | -74.14554 | 8376 ft | 20 kts | 37° |
| 2026-04-26 23:22 | 4.70223 | -74.14466 | 8375 ft | 23 kts | 37° |
| 2026-04-26 23:23 | 4.70340 | -74.14372 | 8374 ft | 16 kts | 55° |
| 2026-04-26 23:23 | 4.70296 | -74.14273 | 8373 ft | 25 kts | 127° |
| 2026-04-26 23:23 | 4.70190 | -74.14133 | 8375 ft | 24 kts | 127° |
| 2026-04-26 23:23 | 4.70088 | -74.13996 | 8376 ft | 25 kts | 122° |
| 2026-04-26 23:24 | 4.69985 | -74.13867 | 8376 ft | 23 kts | 127° |
| 2026-04-26 23:24 | 4.69896 | -74.13744 | 8374 ft | 22 kts | 128° |
| 2026-04-26 23:24 | 4.69790 | -74.13605 | 8376 ft | 25 kts | 127° |
| 2026-04-26 23:24 | 4.69691 | -74.13475 | 8376 ft | 23 kts | 127° |
| 2026-04-26 23:25 | 4.69596 | -74.13349 | 8373 ft | 20 kts | 127° |
| 2026-04-26 23:25 | 4.69539 | -74.13296 | 8372 ft | 4 kts | 185° |
| 2026-04-26 23:25 | 4.69495 | -74.13322 | 8375 ft | 9 kts | 217° |
| 2026-04-26 23:25 | 4.69461 | -74.13335 | 8374 ft | 6 kts | 164° |
| 2026-04-26 23:26 | 4.69443 | -74.13319 | 8372 ft | 6 kts | 131° |
| 2026-04-26 23:26 | 4.69436 | -74.13312 | 8376 ft | 0 kts | 129° |
| 2026-04-26 23:26 | 4.69432 | -74.13306 | 8376 ft | 2 kts | 127° |
| 2026-04-26 23:26 | 4.69432 | -74.13305 | 8376 ft | 0 kts | 127° |